createdAt,value
2022-10-12T00:01:16.249Z,7.82
2022-10-12T00:03:42.488Z,7.79
2022-10-12T00:06:08.691Z,7.74
2022-10-12T00:08:34.887Z,7.67
2022-10-12T00:11:01.176Z,7.69
2022-10-12T00:13:27.449Z,7.69
2022-10-12T00:15:53.690Z,7.62
2022-10-12T00:18:19.941Z,7.60
2022-10-12T00:20:46.129Z,7.57
2022-10-12T00:23:12.315Z,7.58
2022-10-12T00:25:38.573Z,7.60
2022-10-12T00:28:04.781Z,7.50
2022-10-12T00:30:31.035Z,7.52
2022-10-12T00:32:57.377Z,7.40
2022-10-12T00:35:23.564Z,7.39
2022-10-12T00:37:49.834Z,7.45
2022-10-12T00:40:16.017Z,7.48
2022-10-12T00:42:42.200Z,7.47
2022-10-12T00:45:08.378Z,7.45
2022-10-12T00:47:34.698Z,7.44
2022-10-12T00:50:00.997Z,7.43
2022-10-12T00:52:27.186Z,7.28
2022-10-12T00:54:53.381Z,7.32
2022-10-12T00:57:19.755Z,7.31
2022-10-12T00:59:46.007Z,7.28
2022-10-12T01:02:12.198Z,7.25
2022-10-12T01:04:38.370Z,7.24
2022-10-12T01:07:04.575Z,7.22
2022-10-12T01:09:30.760Z,7.18
2022-10-12T01:11:57.910Z,7.17
2022-10-12T01:14:24.093Z,7.13
2022-10-12T01:16:50.272Z,7.06
2022-10-12T01:19:16.455Z,7.06
2022-10-12T01:21:42.634Z,7.05
2022-10-12T01:24:08.814Z,6.85
2022-10-12T01:26:34.998Z,6.93
2022-10-12T01:29:01.189Z,6.98
2022-10-12T01:31:32.237Z,6.93
2022-10-12T01:33:58.872Z,6.93
2022-10-12T01:36:25.059Z,6.92
2022-10-12T01:38:51.260Z,6.88
2022-10-12T01:41:17.452Z,6.86
2022-10-12T01:43:43.666Z,6.85
2022-10-12T01:46:09.861Z,6.80
2022-10-12T01:48:36.061Z,6.79
2022-10-12T01:51:02.253Z,6.83
2022-10-12T01:53:28.760Z,6.81
2022-10-12T01:55:54.944Z,6.78
2022-10-12T01:58:21.155Z,6.77
2022-10-12T02:00:47.456Z,6.71
2022-10-12T02:03:13.675Z,6.66
2022-10-12T02:05:39.859Z,6.68
2022-10-12T02:08:06.053Z,6.69
2022-10-12T02:10:32.236Z,6.68
2022-10-12T02:12:58.424Z,6.65
2022-10-12T02:15:24.666Z,6.61
2022-10-12T02:17:50.864Z,6.57
2022-10-12T02:20:17.056Z,6.54
2022-10-12T02:22:43.234Z,6.51
2022-10-12T02:25:10.962Z,6.47
2022-10-12T02:27:37.437Z,6.44
2022-10-12T02:30:03.834Z,6.31
2022-10-12T02:32:30.019Z,6.19
2022-10-12T02:34:56.236Z,6.28
2022-10-12T02:37:22.423Z,6.27
2022-10-12T02:39:48.675Z,6.28
2022-10-12T02:42:14.855Z,6.28
2022-10-12T02:44:41.236Z,6.20
2022-10-12T02:47:07.438Z,6.26
2022-10-12T02:49:33.614Z,6.28
2022-10-12T02:51:59.804Z,6.24
2022-10-12T02:54:25.991Z,6.23
2022-10-12T02:56:52.176Z,6.14
2022-10-12T02:59:18.660Z,6.17
2022-10-12T03:01:44.900Z,6.04
2022-10-12T03:04:11.312Z,6.12
2022-10-12T03:06:37.504Z,6.10
2022-10-12T03:09:05.104Z,6.04
2022-10-12T03:11:31.367Z,6.07
2022-10-12T03:13:57.556Z,6.04
2022-10-12T03:16:23.780Z,6.07
2022-10-12T03:18:51.317Z,5.98
2022-10-12T03:21:17.563Z,6.03
2022-10-12T03:23:43.746Z,6.05
2022-10-12T03:26:09.925Z,6.03
2022-10-12T03:28:36.149Z,6.05
2022-10-12T03:31:02.344Z,6.01
2022-10-12T03:33:28.566Z,6.01
2022-10-12T03:35:54.779Z,5.98
2022-10-12T03:38:20.984Z,5.91
2022-10-12T03:40:47.176Z,5.89
2022-10-12T03:43:13.414Z,5.86
2022-10-12T03:45:39.601Z,5.88
2022-10-12T03:48:05.792Z,5.86
2022-10-12T03:50:34.667Z,5.89
2022-10-12T03:53:00.863Z,5.89
2022-10-12T03:55:27.076Z,5.89
2022-10-12T03:57:53.256Z,5.81
2022-10-12T04:00:19.441Z,5.87
2022-10-12T04:02:45.631Z,5.90
2022-10-12T04:05:11.815Z,5.87
2022-10-12T04:07:38.208Z,5.78
2022-10-12T04:10:04.727Z,5.76
2022-10-12T04:12:30.902Z,5.65
2022-10-12T04:14:57.133Z,5.67
2022-10-12T04:17:23.472Z,5.66
2022-10-12T04:19:49.728Z,5.68
2022-10-12T04:22:16.162Z,5.59
2022-10-12T04:24:43.612Z,5.58
2022-10-12T04:27:09.882Z,5.55
2022-10-12T04:29:37.096Z,5.49
2022-10-12T04:32:03.290Z,5.35
2022-10-12T04:34:29.474Z,5.41
2022-10-12T04:36:55.659Z,5.49
2022-10-12T04:39:21.847Z,5.53
2022-10-12T04:41:48.034Z,5.56
2022-10-12T04:44:14.267Z,5.44
2022-10-12T04:46:40.480Z,5.40
2022-10-12T04:49:06.684Z,5.46
2022-10-12T04:51:32.987Z,5.48
2022-10-12T04:53:59.227Z,5.54
2022-10-12T04:56:25.410Z,5.56
2022-10-12T04:58:51.591Z,5.56
2022-10-12T05:01:18.136Z,5.53
2022-10-12T05:03:44.631Z,5.54
2022-10-12T05:06:10.871Z,5.46
2022-10-12T05:08:37.070Z,5.48
2022-10-12T05:11:03.250Z,5.42
2022-10-12T05:13:29.909Z,5.49
2022-10-12T05:15:56.109Z,5.40
2022-10-12T05:18:22.332Z,5.33
2022-10-12T05:20:57.038Z,5.36
2022-10-12T05:23:23.567Z,5.38
2022-10-12T05:25:49.747Z,5.36
2022-10-12T05:28:15.978Z,5.38
2022-10-12T05:30:42.195Z,5.43
2022-10-12T05:33:08.569Z,5.40
2022-10-12T05:35:34.855Z,5.30
2022-10-12T05:38:01.402Z,5.34
2022-10-12T05:40:28.700Z,5.27
2022-10-12T05:42:54.891Z,5.30
2022-10-12T05:45:21.354Z,5.35
2022-10-12T05:47:47.580Z,5.37
2022-10-12T05:50:13.762Z,5.34
2022-10-12T05:52:40.359Z,5.36
2022-10-12T05:55:06.896Z,5.16
2022-10-12T05:57:33.126Z,5.21
2022-10-12T05:59:59.333Z,5.29
2022-10-12T06:02:25.555Z,5.30
2022-10-12T06:04:51.744Z,5.33
2022-10-12T06:07:17.970Z,5.36
2022-10-12T06:09:44.751Z,5.47
2022-10-12T06:12:10.952Z,5.56
2022-10-12T06:14:37.143Z,5.63
2022-10-12T06:17:03.357Z,5.61
2022-10-12T06:19:29.548Z,5.63
2022-10-12T06:21:59.251Z,5.67
2022-10-12T06:24:25.434Z,5.74
2022-10-12T06:26:51.631Z,5.84
2022-10-12T06:29:17.802Z,5.87
2022-10-12T06:31:47.643Z,5.91
2022-10-12T06:34:16.741Z,5.98
2022-10-12T06:36:43.000Z,6.03
2022-10-12T06:39:09.193Z,6.03
2022-10-12T06:41:35.524Z,6.14
2022-10-12T06:44:01.711Z,6.30
2022-10-12T06:46:27.928Z,6.26
2022-10-12T06:48:54.134Z,6.44
2022-10-12T06:51:20.375Z,6.56
2022-10-12T06:53:46.565Z,6.61
2022-10-12T06:56:12.791Z,6.77
2022-10-12T06:58:39.039Z,6.93
2022-10-12T07:01:05.259Z,6.98
2022-10-12T07:03:31.433Z,7.05
2022-10-12T07:05:57.634Z,7.22
2022-10-12T07:08:23.818Z,7.35
2022-10-12T07:10:49.991Z,7.42
2022-10-12T07:13:16.185Z,7.52
2022-10-12T07:15:42.371Z,7.64
2022-10-12T07:18:08.570Z,7.73
2022-10-12T07:20:34.742Z,7.94
2022-10-12T07:23:00.918Z,7.99
2022-10-12T07:25:27.112Z,8.11
2022-10-12T07:27:53.358Z,8.26
2022-10-12T07:30:19.618Z,8.28
2022-10-12T07:32:46.950Z,8.30
2022-10-12T07:35:13.205Z,8.48
2022-10-12T07:37:39.699Z,8.51
2022-10-12T07:40:06.122Z,8.63
2022-10-12T07:42:32.370Z,8.64
2022-10-12T07:44:58.619Z,8.78
2022-10-12T07:47:24.806Z,8.76
2022-10-12T07:49:51.084Z,8.47
2022-10-12T07:52:17.528Z,8.71
2022-10-12T07:54:43.819Z,8.87
2022-10-12T07:57:10.094Z,8.80
2022-10-12T07:59:36.347Z,8.83
2022-10-12T08:02:02.731Z,8.87
2022-10-12T08:04:29.026Z,9.22
2022-10-12T08:06:55.490Z,9.17
2022-10-12T08:09:21.727Z,9.60
2022-10-12T08:11:47.998Z,9.77
2022-10-12T08:14:14.712Z,9.91
2022-10-12T08:16:40.993Z,9.93
2022-10-12T08:19:07.255Z,10.18
2022-10-12T08:21:33.500Z,10.21
2022-10-12T08:23:59.758Z,10.02
2022-10-12T08:26:26.023Z,10.20
2022-10-12T08:28:52.728Z,10.12
2022-10-12T08:31:19.380Z,10.53
2022-10-12T08:33:45.711Z,10.53
2022-10-12T08:36:11.950Z,10.80
2022-10-12T08:38:43.333Z,11.03
2022-10-12T08:41:09.647Z,11.07
2022-10-12T08:43:39.024Z,11.18
2022-10-12T08:46:05.276Z,10.85
2022-10-12T08:48:31.541Z,11.16
2022-10-12T08:53:29.087Z,11.31
2022-10-12T08:55:56.768Z,11.56
2022-10-12T08:58:23.016Z,11.57
2022-10-12T09:00:49.308Z,11.66
2022-10-12T09:03:15.579Z,11.82
2022-10-12T09:05:41.890Z,11.77
2022-10-12T09:08:08.168Z,11.79
2022-10-12T09:10:34.507Z,12.10
2022-10-12T09:13:00.799Z,12.40
2022-10-12T09:15:27.060Z,12.25
2022-10-12T09:17:53.306Z,12.46
2022-10-12T09:20:19.743Z,12.45
2022-10-12T09:22:45.987Z,12.30
2022-10-12T09:25:12.511Z,12.63
2022-10-12T09:27:42.924Z,12.49
2022-10-12T09:30:11.285Z,12.80
2022-10-12T09:32:37.540Z,13.06
2022-10-12T09:35:04.208Z,13.28
2022-10-12T09:37:30.468Z,13.25
2022-10-12T09:39:56.741Z,13.58
2022-10-12T09:42:23.012Z,13.52
2022-10-12T09:44:49.374Z,13.50
2022-10-12T09:47:15.647Z,13.73
2022-10-12T09:49:41.912Z,13.76
2022-10-12T09:52:08.175Z,14.04
2022-10-12T09:54:34.498Z,13.96
2022-10-12T09:57:00.769Z,14.04
2022-10-12T09:59:27.382Z,13.93
2022-10-12T10:01:53.648Z,14.36
2022-10-12T10:04:20.051Z,14.35
2022-10-12T10:06:46.356Z,14.27
2022-10-12T10:09:12.594Z,14.24
2022-10-12T10:11:39.511Z,14.54
2022-10-12T10:14:05.785Z,14.65
2022-10-12T10:16:32.094Z,14.67
2022-10-12T10:18:58.371Z,14.64
2022-10-12T10:21:24.610Z,14.71
2022-10-12T10:23:51.248Z,14.92
2022-10-12T10:28:44.749Z,15.09
2022-10-12T10:31:11.047Z,15.03
2022-10-12T10:33:37.506Z,14.93
2022-10-12T10:36:04.140Z,15.24
2022-10-12T10:38:30.473Z,15.41
2022-10-12T10:40:57.194Z,15.49
2022-10-12T10:43:23.768Z,15.40
2022-10-12T10:45:50.034Z,15.34
2022-10-12T10:48:16.311Z,15.68
2022-10-12T10:50:42.559Z,15.67
2022-10-12T10:53:08.892Z,15.62
2022-10-12T10:55:35.146Z,15.90
2022-10-12T10:58:01.407Z,15.81
2022-10-12T11:00:43.292Z,15.95
2022-10-12T11:03:09.991Z,15.80
2022-10-12T11:05:36.333Z,15.99
2022-10-12T11:08:02.615Z,16.06
2022-10-12T11:10:29.125Z,15.94
2022-10-12T11:12:55.384Z,15.96
2022-10-12T11:15:21.935Z,16.05
2022-10-12T11:17:48.291Z,16.06
2022-10-12T11:20:17.341Z,16.22
2022-10-12T11:22:46.022Z,16.39
2022-10-12T11:25:12.279Z,16.55
2022-10-12T11:27:38.575Z,16.36
2022-10-12T11:30:11.636Z,16.28
2022-10-12T11:32:37.946Z,16.48
2022-10-12T11:35:04.239Z,16.36
2022-10-12T11:37:30.625Z,16.44
2022-10-12T11:39:56.872Z,16.31
2022-10-12T11:42:23.228Z,16.27
2022-10-12T11:44:49.490Z,16.54
2022-10-12T11:47:15.781Z,16.60
2022-10-12T11:49:42.044Z,16.69
2022-10-12T11:52:08.325Z,16.57
2022-10-12T11:54:34.590Z,16.43
2022-10-12T11:57:00.841Z,16.48
2022-10-12T11:59:27.157Z,16.57
2022-10-12T12:01:53.406Z,16.67
2022-10-12T12:04:50.516Z,16.53
2022-10-12T12:07:07.126Z,16.54
2022-10-12T12:09:33.394Z,16.65
2022-10-12T12:11:59.638Z,16.74
2022-10-12T12:14:25.913Z,16.64
2022-10-12T12:16:52.174Z,16.72
2022-10-12T12:19:18.513Z,16.82
2022-10-12T12:21:44.780Z,16.88
2022-10-12T12:24:11.054Z,16.72
2022-10-12T12:26:37.316Z,16.69
2022-10-12T12:29:03.585Z,16.89
2022-10-12T12:31:30.442Z,16.79
2022-10-12T12:33:56.707Z,16.77
2022-10-12T12:36:22.958Z,16.82
2022-10-12T12:38:49.305Z,16.97
2022-10-12T12:41:15.611Z,16.83
2022-10-12T12:43:41.862Z,16.96
2022-10-12T12:46:08.247Z,16.86
2022-10-12T12:48:34.527Z,16.98
2022-10-12T12:51:00.919Z,16.92
2022-10-12T12:53:27.192Z,16.97
2022-10-12T12:55:53.469Z,16.96
2022-10-12T12:58:19.878Z,16.99
2022-10-12T13:03:18.970Z,17.01
2022-10-12T13:05:45.244Z,16.87
2022-10-12T13:08:11.522Z,16.96
2022-10-12T13:10:37.782Z,17.13
2022-10-12T13:13:04.507Z,16.99
2022-10-12T13:15:30.753Z,16.93
2022-10-12T13:17:57.649Z,17.01
2022-10-12T13:20:23.932Z,17.08
2022-10-12T13:22:50.398Z,17.07
2022-10-12T13:25:16.775Z,17.08
2022-10-12T13:27:43.033Z,17.06
2022-10-12T13:30:09.341Z,17.11
2022-10-12T13:32:35.610Z,16.99
2022-10-12T13:35:02.367Z,17.17
2022-10-12T13:37:28.635Z,17.04
2022-10-12T13:39:56.189Z,17.11
2022-10-12T13:42:22.453Z,17.04
2022-10-12T13:44:48.759Z,17.02
2022-10-12T13:47:15.060Z,16.95
2022-10-12T13:49:41.324Z,16.97
2022-10-12T13:52:07.590Z,17.10
2022-10-12T13:54:33.859Z,17.10
2022-10-12T13:57:00.197Z,17.04
2022-10-12T13:59:26.595Z,17.06
2022-10-12T14:01:52.848Z,17.13
2022-10-12T14:04:19.158Z,17.07
2022-10-12T14:06:45.426Z,16.99
2022-10-12T14:09:11.699Z,17.03
2022-10-12T14:11:37.980Z,16.90
2022-10-12T14:14:04.354Z,16.97
2022-10-12T14:16:30.719Z,17.08
2022-10-12T14:18:56.993Z,17.01
2022-10-12T14:21:23.573Z,16.88
2022-10-12T14:23:49.877Z,16.93
2022-10-12T14:26:16.191Z,16.95
2022-10-12T14:28:42.561Z,17.00
2022-10-12T14:31:08.852Z,17.03
2022-10-12T14:33:35.128Z,16.94
2022-10-12T14:36:01.397Z,16.88
2022-10-12T14:38:27.651Z,16.91
2022-10-12T14:40:53.911Z,16.97
2022-10-12T14:43:20.479Z,16.99
2022-10-12T14:45:46.751Z,17.00
2022-10-12T14:48:13.006Z,16.92
2022-10-12T14:50:39.268Z,16.95
2022-10-12T14:53:06.541Z,16.99
2022-10-12T14:55:32.860Z,16.90
2022-10-12T14:57:59.676Z,16.80
2022-10-12T15:00:25.938Z,16.81
2022-10-12T15:02:52.194Z,16.77
2022-10-12T15:05:18.611Z,16.73
2022-10-12T15:07:46.805Z,16.67
2022-10-12T15:10:13.681Z,16.69
2022-10-12T15:12:40.015Z,16.67
2022-10-12T15:15:06.309Z,16.66
2022-10-12T15:17:32.590Z,16.64
2022-10-12T15:19:58.861Z,16.50
2022-10-12T15:22:25.153Z,16.48
2022-10-12T15:24:51.411Z,16.40
2022-10-12T15:27:17.668Z,16.42
2022-10-12T15:29:43.957Z,16.37
2022-10-12T15:32:10.223Z,16.41
2022-10-12T15:34:36.475Z,16.33
2022-10-12T15:37:06.562Z,16.36
2022-10-12T15:39:35.212Z,16.32
2022-10-12T15:42:01.475Z,16.25
2022-10-12T15:44:27.735Z,16.20
2022-10-12T15:46:53.986Z,16.19
2022-10-12T15:49:21.771Z,16.14
2022-10-12T15:51:48.043Z,16.08
2022-10-12T15:54:14.328Z,16.06
2022-10-12T15:56:40.597Z,16.00
2022-10-12T15:59:06.862Z,15.90
2022-10-12T16:01:33.144Z,15.88
2022-10-12T16:03:59.415Z,15.79
2022-10-12T16:06:29.319Z,15.84
2022-10-12T16:08:55.604Z,16.04
2022-10-12T16:11:21.909Z,16.13
2022-10-12T16:13:55.449Z,16.10
2022-10-12T16:16:22.675Z,16.07
2022-10-12T16:18:48.964Z,15.88
2022-10-12T16:21:15.243Z,15.80
2022-10-12T16:23:41.532Z,15.85
2022-10-12T16:26:07.832Z,15.92
2022-10-12T16:28:34.130Z,15.92
2022-10-12T16:31:00.446Z,15.84
2022-10-12T16:33:30.113Z,15.65
2022-10-12T16:35:56.548Z,15.73
2022-10-12T16:38:22.797Z,15.70
2022-10-12T16:40:49.676Z,15.72
2022-10-12T16:43:15.932Z,15.73
2022-10-12T16:45:42.186Z,15.64
2022-10-12T16:48:08.440Z,15.60
2022-10-12T16:50:39.801Z,15.47
2022-10-12T16:53:06.073Z,15.51
2022-10-12T16:55:32.345Z,15.44
2022-10-12T16:57:58.653Z,15.40
2022-10-12T17:00:25.020Z,15.34
2022-10-12T17:02:55.272Z,15.16
2022-10-12T17:05:23.618Z,15.21
2022-10-12T17:07:49.876Z,15.15
2022-10-12T17:10:16.196Z,15.17
2022-10-12T17:12:42.454Z,15.19
2022-10-12T17:15:08.711Z,15.04
2022-10-12T17:17:35.014Z,14.95
2022-10-12T17:22:28.883Z,14.80
2022-10-12T17:24:55.152Z,14.76
2022-10-12T17:27:21.418Z,14.64
2022-10-12T17:29:47.743Z,14.61
2022-10-12T17:32:14.313Z,14.52
2022-10-12T17:34:40.891Z,14.40
2022-10-12T17:37:07.174Z,14.25
2022-10-12T17:39:33.437Z,14.22
2022-10-12T17:41:59.707Z,14.08
2022-10-12T17:44:26.071Z,14.18
2022-10-12T17:46:52.323Z,14.11
2022-10-12T17:49:23.523Z,14.09
2022-10-12T17:51:51.035Z,14.03
2022-10-12T17:54:17.286Z,13.91
2022-10-12T17:56:43.544Z,13.87
2022-10-12T17:59:09.931Z,13.82
2022-10-12T18:01:36.219Z,13.72
2022-10-12T18:04:02.527Z,13.77
2022-10-12T18:06:29.014Z,13.74
2022-10-12T18:08:56.560Z,13.62
2022-10-12T18:11:22.818Z,13.43
2022-10-12T18:13:49.078Z,13.49
2022-10-12T18:16:15.321Z,13.52
2022-10-12T18:18:41.927Z,13.44
2022-10-12T18:21:08.200Z,13.45
2022-10-12T18:23:34.446Z,13.41
2022-10-12T18:26:00.702Z,13.38
2022-10-12T18:28:27.004Z,13.37
2022-10-12T18:30:53.313Z,13.32
2022-10-12T18:33:19.567Z,13.21
2022-10-12T18:35:45.849Z,13.16
2022-10-12T18:38:12.097Z,13.09
2022-10-12T18:40:41.987Z,13.04
2022-10-12T18:43:08.694Z,12.91
2022-10-12T18:45:34.972Z,12.94
2022-10-12T18:48:01.214Z,12.95
2022-10-12T18:50:27.467Z,12.85
2022-10-12T18:52:53.719Z,12.71
2022-10-12T18:55:19.974Z,12.69
2022-10-12T18:57:46.226Z,12.70
2022-10-12T19:00:12.481Z,12.62
2022-10-12T19:02:38.764Z,12.62
2022-10-12T19:05:05.033Z,12.56
2022-10-12T19:07:31.380Z,12.41
2022-10-12T19:09:57.687Z,12.54
2022-10-12T19:12:23.938Z,12.61
2022-10-12T19:14:50.196Z,12.53
2022-10-12T19:17:16.457Z,12.53
2022-10-12T19:19:42.727Z,12.36
2022-10-12T19:22:08.970Z,12.28
2022-10-12T19:24:35.224Z,12.28
2022-10-12T19:27:01.487Z,12.26
2022-10-12T19:29:27.731Z,12.27
2022-10-12T19:31:53.981Z,12.23
2022-10-12T19:34:20.245Z,12.21
2022-10-12T19:36:46.490Z,12.18
2022-10-12T19:39:12.743Z,12.10
2022-10-12T19:41:39.001Z,12.11
2022-10-12T19:44:05.257Z,12.01
2022-10-12T19:46:31.716Z,12.03
2022-10-12T19:48:57.977Z,12.09
2022-10-12T19:51:24.309Z,12.07
2022-10-12T19:53:50.555Z,12.07
2022-10-12T19:56:16.816Z,12.04
2022-10-12T19:58:43.077Z,12.10
2022-10-12T20:01:09.440Z,12.08
2022-10-12T20:03:35.954Z,12.01
2022-10-12T20:06:05.956Z,12.08
2022-10-12T20:08:32.912Z,12.07
2022-10-12T20:10:59.181Z,12.03
2022-10-12T20:13:25.505Z,11.97
2022-10-12T20:15:51.753Z,11.88
2022-10-12T20:18:17.994Z,11.87
2022-10-12T20:20:44.244Z,11.66
2022-10-12T20:23:10.517Z,11.67
2022-10-12T20:25:36.795Z,11.57
2022-10-12T20:28:03.995Z,11.59
2022-10-12T20:30:30.190Z,11.44
2022-10-12T20:32:56.584Z,11.31
2022-10-12T20:35:22.830Z,11.38
2022-10-12T20:37:49.073Z,11.44
2022-10-12T20:40:15.327Z,11.39
2022-10-12T20:42:41.587Z,11.42
2022-10-12T20:45:09.428Z,11.37
2022-10-12T20:47:35.674Z,11.39
2022-10-12T20:50:02.163Z,11.29
2022-10-12T20:52:28.457Z,11.27
2022-10-12T20:54:54.747Z,10.89
2022-10-12T20:57:21.011Z,11.11
2022-10-12T20:59:48.902Z,11.11
2022-10-12T21:02:15.577Z,10.81
2022-10-12T21:04:42.296Z,10.95
2022-10-12T21:07:08.564Z,10.97
2022-10-12T21:09:34.820Z,10.97
2022-10-12T21:12:01.080Z,10.89
2022-10-12T21:14:27.322Z,10.88
2022-10-12T21:16:53.571Z,10.80
2022-10-12T21:19:19.816Z,10.77
2022-10-12T21:21:49.074Z,10.79
2022-10-12T21:24:15.387Z,10.74
2022-10-12T21:26:41.661Z,10.36
2022-10-12T21:29:07.908Z,10.43
2022-10-12T21:31:34.189Z,10.56
2022-10-12T21:34:01.285Z,10.52
2022-10-12T21:36:27.527Z,10.59
2022-10-12T21:38:53.799Z,10.54
2022-10-12T21:41:20.165Z,10.45
2022-10-12T21:43:46.451Z,10.48
2022-10-12T21:46:12.696Z,10.54
2022-10-12T21:48:38.963Z,10.54
2022-10-12T21:51:05.514Z,10.42
2022-10-12T21:53:31.825Z,10.48
2022-10-12T21:55:58.080Z,10.44
2022-10-12T21:58:24.326Z,10.45
2022-10-12T22:00:50.617Z,10.42
2022-10-12T22:03:17.034Z,10.42
2022-10-12T22:05:43.290Z,10.36
2022-10-12T22:08:09.576Z,10.32
2022-10-12T22:10:36.099Z,10.29
2022-10-12T22:13:02.346Z,10.24
2022-10-12T22:15:28.621Z,10.20
2022-10-12T22:17:54.880Z,10.15
2022-10-12T22:20:21.169Z,10.09
2022-10-12T22:22:47.425Z,9.99
2022-10-12T22:25:13.817Z,10.00
2022-10-12T22:27:40.074Z,9.79
2022-10-12T22:30:06.357Z,9.93
2022-10-12T22:32:32.594Z,9.92
2022-10-12T22:34:59.085Z,9.92
2022-10-12T22:37:25.353Z,9.91
2022-10-12T22:39:51.691Z,9.85
2022-10-12T22:42:18.195Z,9.91
2022-10-12T22:44:44.703Z,9.95
2022-10-12T22:47:10.986Z,9.93
2022-10-12T22:49:37.258Z,9.94
2022-10-12T22:52:03.510Z,9.88
2022-10-12T22:54:29.788Z,9.75
2022-10-12T22:56:56.088Z,9.81
2022-10-12T22:59:22.383Z,9.62
2022-10-12T23:01:48.717Z,9.53
2022-10-12T23:04:14.998Z,9.50
2022-10-12T23:06:41.253Z,9.52
2022-10-12T23:09:07.521Z,9.50
2022-10-12T23:11:33.971Z,9.27
2022-10-12T23:14:00.268Z,9.30
2022-10-12T23:16:26.561Z,9.49
2022-10-12T23:18:58.051Z,9.59
2022-10-12T23:21:25.436Z,9.57
2022-10-12T23:23:51.682Z,9.51
2022-10-12T23:26:17.948Z,9.25
2022-10-12T23:28:44.284Z,9.45
2022-10-12T23:31:10.645Z,9.53
2022-10-12T23:33:36.943Z,9.52
2022-10-12T23:36:03.205Z,9.55
2022-10-12T23:38:29.460Z,9.64
2022-10-12T23:40:58.751Z,9.62
2022-10-12T23:43:25.994Z,9.67
2022-10-12T23:45:52.372Z,9.62
2022-10-12T23:48:18.621Z,9.68
2022-10-12T23:50:46.423Z,9.68
2022-10-12T23:53:12.678Z,9.56
2022-10-12T23:55:38.955Z,9.59
2022-10-12T23:58:05.194Z,9.61
